Time;durP1;ratioP1;P1;durP2;ratioP2;P2;SDS_P1;SDS_P2;PMS_P1;PMS_P2;Temp;Humidity;BMP_temperature;BMP_pressure;BME280_temperature;BME280_humidity;BME280_pressure;Samples;Min_cycle;Max_cycle;Signal;HPM_P1;HPM_P2
2021/07/17 00:01:37;;;;;;;7.30;6.17;;;15.70;99.90;;;16.90;72.57;94672.53;5018855;28;20927;-72
2021/07/17 00:04:04;;;;;;;5.83;5.33;;;15.70;99.90;;;16.87;72.44;94665.06;5011002;28;20224;-71
2021/07/17 00:06:35;;;;;;;7.80;5.70;;;15.70;99.90;;;16.91;72.79;94660.75;5039313;28;20200;-71
2021/07/17 00:09:03;;;;;;;6.97;5.33;;;15.70;99.90;;;16.95;72.66;94660.16;5019893;28;20565;-72
2021/07/17 00:11:29;;;;;;;7.03;6.13;;;15.80;99.90;;;16.98;72.65;94662.28;5027544;28;20253;-72
2021/07/17 00:13:56;;;;;;;5.97;5.47;;;15.80;99.90;;;17.00;73.24;94654.75;5054170;28;20213;-72
2021/07/17 00:16:26;;;;;;;8.43;6.10;;;15.80;99.90;;;17.09;72.96;94661.09;5025246;28;20697;-72
2021/07/17 00:18:56;;;;;;;6.50;6.00;;;16.20;99.90;;;16.85;73.13;94655.72;5052372;28;20217;-72
2021/07/17 00:21:23;;;;;;;6.40;5.80;;;16.60;99.90;;;16.86;72.97;94670.69;5041203;28;20202;-73
2021/07/17 00:23:52;;;;;;;6.87;6.27;;;16.10;99.90;;;16.91;73.05;94658.06;5028620;28;20197;-72
2021/07/17 00:26:19;;;;;;;6.37;5.63;;;15.70;99.90;;;16.97;73.19;94656.13;5030291;28;20285;-72
2021/07/17 00:28:45;;;;;;;6.13;5.67;;;15.60;99.90;;;16.96;73.02;94657.19;5020042;28;20630;-71
2021/07/17 00:31:11;;;;;;;6.50;5.37;;;15.90;99.90;;;16.89;73.17;94667.44;5024088;28;20750;-71
2021/07/17 00:33:37;;;;;;;6.10;5.13;;;15.80;99.90;;;16.89;73.23;94670.91;5017903;28;20258;-72
2021/07/17 00:36:06;;;;;;;5.90;5.30;;;15.60;99.90;;;16.82;73.19;94665.09;5024691;28;20214;-71
2021/07/17 00:38:33;;;;;;;6.17;5.57;;;15.60;99.90;;;16.83;73.44;94663.22;5027053;28;20225;-72
2021/07/17 00:40:59;;;;;;;5.10;4.70;;;15.60;99.90;;;16.79;73.58;94667.56;5024300;28;20200;-72
2021/07/17 00:43:26;;;;;;;5.53;5.10;;;15.60;99.90;;;16.75;73.30;94662.00;5019316;28;20223;-72
2021/07/17 00:45:52;;;;;;;7.00;5.10;;;15.50;99.90;;;16.70;73.59;94654.00;5024874;28;20256;-72
2021/07/17 00:48:19;;;;;;;6.03;5.47;;;15.50;99.90;;;16.75;74.00;94650.47;5011596;28;20692;-72
2021/07/17 00:50:45;;;;;;;5.97;5.37;;;15.60;99.90;;;16.77;73.77;94657.13;5025512;28;20203;-72
2021/07/17 00:53:11;;;;;;;5.93;5.53;;;15.60;99.90;;;16.81;73.75;94662.72;5003662;28;20206;-72
2021/07/17 00:55:47;;;;;;;8.20;5.80;;;15.60;99.90;;;16.81;73.89;94663.53;5018371;28;20200;-71
2021/07/17 00:58:16;;;;;;;6.60;6.10;;;15.60;99.90;;;16.96;73.72;94659.88;5023047;28;20245;-72
2021/07/17 01:00:45;;;;;;;6.43;5.73;;;15.70;99.90;;;16.90;73.88;94656.47;5023549;28;20203;-73
2021/07/17 01:03:15;;;;;;;7.27;6.57;;;15.70;99.90;;;16.87;74.01;94651.69;5038977;28;20286;-73
2021/07/17 01:05:41;;;;;;;7.20;6.60;;;15.60;99.90;;;16.85;74.15;94650.38;5007280;28;20209;-72
2021/07/17 01:08:09;;;;;;;7.83;6.83;;;15.60;99.90;;;16.95;74.19;94652.13;5027889;28;20197;-74
2021/07/17 01:10:35;;;;;;;7.43;6.83;;;15.70;99.90;;;17.00;74.20;94652.88;5008122;28;20200;-71
2021/07/17 01:13:02;;;;;;;7.37;6.67;;;15.70;99.90;;;16.91;74.47;94650.03;5011229;28;20201;-73
2021/07/17 01:15:28;;;;;;;8.63;7.83;;;15.70;99.90;;;16.91;74.32;94652.72;5005570;28;20225;-71
2021/07/17 01:17:59;;;;;;;8.53;7.40;;;15.70;99.90;;;16.95;74.29;94652.94;5005506;28;20288;-71
2021/07/17 01:20:26;;;;;;;8.57;7.83;;;15.70;99.90;;;16.97;74.56;94653.44;5018307;28;20185;-72
2021/07/17 01:22:52;;;;;;;8.50;7.70;;;15.70;99.90;;;16.95;74.54;94650.25;5019306;28;20658;-72
2021/07/17 01:25:27;;;;;;;8.33;7.73;;;15.80;99.90;;;17.01;74.52;94645.63;5008612;28;20189;-72
2021/07/17 01:27:58;;;;;;;8.83;7.83;;;15.80;99.90;;;17.01;74.50;94651.78;5039106;28;21957;-72
2021/07/17 01:30:34;;;;;;;7.87;7.17;;;15.80;99.90;;;16.96;74.60;94651.84;5019247;28;20217;-73
2021/07/17 01:33:01;;;;;;;8.07;7.37;;;15.80;99.90;;;17.05;74.71;94641.31;5023658;28;20291;-72
2021/07/17 01:35:30;;;;;;;7.47;6.87;;;15.80;99.90;;;17.06;75.00;94641.00;5018583;28;20700;-72
2021/07/17 01:37:58;;;;;;;8.30;7.50;;;15.80;99.90;;;17.01;74.98;94646.44;5027628;28;20193;-72
2021/07/17 01:40:24;;;;;;;8.90;8.10;;;15.80;99.90;;;16.91;74.72;94633.16;5021000;28;20190;-72
2021/07/17 01:42:58;;;;;;;8.97;8.27;;;15.70;99.90;;;17.00;75.04;94646.72;5040124;28;20231;-72
2021/07/17 01:45:36;;;;;;;8.97;8.27;;;15.80;99.90;;;16.95;74.81;94647.59;4996229;28;20200;-72
2021/07/17 01:48:06;;;;;;;8.40;7.70;;;15.70;99.90;;;16.96;74.76;94648.34;5055592;28;20197;-72
2021/07/17 01:50:33;;;;;;;8.97;8.07;;;15.70;99.90;;;16.96;74.83;94643.78;5023809;28;20185;-72
2021/07/17 01:53:00;;;;;;;9.60;8.80;;;15.70;99.90;;;16.93;75.10;94637.13;5041410;28;20245;-72
2021/07/17 01:55:27;;;;;;;9.40;8.50;;;15.80;99.90;;;17.01;75.25;94633.03;5029387;28;20707;-72
2021/07/17 01:57:58;;;;;;;11.73;8.93;;;15.80;99.90;;;17.03;75.18;94636.22;5029165;28;20196;-72
2021/07/17 02:00:25;;;;;;;9.73;8.93;;;15.80;99.90;;;17.03;75.41;94635.41;5033572;28;20706;-72
2021/07/17 02:02:52;;;;;;;9.57;8.77;;;15.90;99.90;;;17.07;75.33;94629.22;5039418;28;20192;-72
2021/07/17 02:05:20;;;;;;;9.47;8.57;;;16.30;99.90;;;17.01;75.40;94626.88;5013431;28;20731;-73
2021/07/17 02:07:46;;;;;;;8.37;7.57;;;16.60;99.90;;;17.02;75.40;94617.78;5022029;28;20218;-72
2021/07/17 02:10:21;;;;;;;8.37;7.67;;;16.10;99.90;;;17.07;75.33;94626.53;5030369;28;20200;-71
2021/07/17 02:13:09;;;;;;;8.90;8.07;;;15.90;99.90;;;17.11;75.53;94629.44;5025223;28;20189;-71
2021/07/17 02:15:50;;;;;;;8.97;8.23;;;15.60;99.90;;;17.13;75.54;94628.06;4999964;28;20212;-72
2021/07/17 02:18:31;;;;;;;9.07;8.17;;;15.90;99.90;;;17.14;75.62;94623.50;5026941;28;20220;-72
2021/07/17 02:21:07;;;;;;;9.77;8.77;;;15.90;99.90;;;17.10;75.65;94628.63;5016640;28;21661;-72
2021/07/17 02:23:36;;;;;;;9.90;9.00;;;15.90;99.90;;;17.06;75.69;94616.91;5020287;28;20192;-72
2021/07/17 02:26:06;;;;;;;9.93;9.03;;;15.80;99.90;;;17.06;75.73;94624.13;5018307;28;20189;-72
2021/07/17 02:28:33;;;;;;;11.27;9.63;;;15.90;99.90;;;17.05;75.63;94628.72;5025726;28;20197;-73
2021/07/17 02:31:05;;;;;;;10.20;9.10;;;15.80;99.90;;;17.09;75.52;94626.25;5025564;28;20670;-72
2021/07/17 02:33:32;;;;;;;10.60;9.70;;;15.90;99.90;;;17.03;75.95;94616.66;5023785;28;20218;-71
2021/07/17 02:35:58;;;;;;;10.97;9.40;;;15.80;99.90;;;16.86;75.93;94625.97;5005817;28;20235;-72
2021/07/17 02:38:24;;;;;;;10.40;9.50;;;15.70;99.90;;;17.03;76.08;94633.53;5006154;28;20265;-73
2021/07/17 02:40:50;;;;;;;10.47;9.57;;;15.80;99.90;;;17.06;75.89;94634.84;5037003;28;20914;-72
2021/07/17 02:43:16;;;;;;;10.03;9.23;;;15.80;99.90;;;17.08;75.77;94624.66;5008892;28;20185;-72
2021/07/17 02:45:42;;;;;;;10.50;9.60;;;15.80;99.90;;;17.12;76.17;94621.13;5023096;28;20649;-72
2021/07/17 02:48:10;;;;;;;9.77;8.97;;;15.90;99.90;;;17.21;75.87;94619.41;5025749;28;20226;-72
2021/07/17 02:50:35;;;;;;;10.00;9.20;;;15.90;99.90;;;17.21;76.17;94616.72;5027832;28;20193;-72
2021/07/17 02:53:05;;;;;;;10.47;9.57;;;16.00;99.90;;;17.20;76.29;94614.31;5006184;28;20758;-73
2021/07/17 02:55:36;;;;;;;9.97;8.97;;;16.00;99.90;;;17.30;75.66;94623.03;5012662;28;20190;-73
2021/07/17 02:58:02;;;;;;;9.47;8.67;;;16.00;99.90;;;17.24;76.23;94609.97;5037868;28;20241;-73
2021/07/17 03:00:33;;;;;;;10.40;9.40;;;16.00;99.90;;;17.18;76.25;94617.28;5017352;28;20195;-73
2021/07/17 03:03:00;;;;;;;11.10;9.40;;;16.00;99.90;;;17.14;76.28;94610.13;5018220;28;20866;-72
2021/07/17 03:05:26;;;;;;;10.30;9.40;;;16.00;99.90;;;17.14;76.28;94610.91;5022516;28;20223;-73
2021/07/17 03:07:52;;;;;;;11.20;10.20;;;16.00;99.90;;;17.08;76.30;94609.38;5020120;28;20200;-73
2021/07/17 03:10:18;;;;;;;10.73;9.73;;;15.90;99.90;;;17.15;76.44;94623.22;5027196;28;20210;-72
2021/07/17 03:12:46;;;;;;;11.83;10.10;;;16.00;99.90;;;17.18;76.46;94622.66;5025384;28;20195;-72
2021/07/17 03:15:12;;;;;;;11.27;10.17;;;16.00;99.90;;;17.17;76.72;94620.25;5007726;28;20195;-72
2021/07/17 03:17:38;;;;;;;11.00;9.90;;;16.00;99.90;;;17.19;76.59;94624.22;5020086;28;20192;-72
2021/07/17 03:20:10;;;;;;;11.30;9.90;;;16.10;99.90;;;17.21;76.39;94629.31;5008760;28;20703;-73
2021/07/17 03:22:38;;;;;;;10.37;9.57;;;16.10;99.90;;;17.24;76.60;94624.19;5025067;28;20214;-71
2021/07/17 03:25:05;;;;;;;11.40;10.40;;;16.10;99.90;;;17.25;76.58;94623.09;5024421;28;20190;-72
2021/07/17 03:27:31;;;;;;;11.87;10.67;;;16.10;99.90;;;17.18;76.64;94621.84;5023149;28;20278;-72
2021/07/17 03:29:57;;;;;;;11.33;10.33;;;16.10;99.90;;;17.15;76.67;94617.06;5018850;28;20201;-73
2021/07/17 03:32:26;;;;;;;12.50;11.23;;;16.10;99.90;;;17.16;76.94;94624.81;5045654;28;20217;-71
2021/07/17 03:34:54;;;;;;;13.47;11.13;;;16.00;99.90;;;17.20;76.56;94625.84;5021290;28;20669;-71
2021/07/17 03:37:20;;;;;;;13.33;11.97;;;16.10;99.90;;;17.17;76.59;94626.41;5025318;28;20205;-72
2021/07/17 03:39:47;;;;;;;12.93;11.73;;;16.10;99.90;;;17.16;76.73;94635.53;5037368;28;20221;-70
2021/07/17 03:42:13;;;;;;;13.27;12.07;;;16.00;99.90;;;17.18;77.13;94636.06;5018524;28;20291;-71
2021/07/17 03:44:39;;;;;;;14.10;12.83;;;16.00;99.90;;;17.17;76.97;94618.38;5043732;28;20284;-72
2021/07/17 03:47:05;;;;;;;14.83;13.43;;;16.70;99.90;;;17.16;77.00;94632.84;5018433;28;20334;-71
2021/07/17 03:49:33;;;;;;;14.80;13.33;;;15.90;99.90;;;17.13;77.12;94637.97;5024551;28;20198;-71
2021/07/17 03:51:59;;;;;;;14.90;13.43;;;16.20;99.90;;;17.13;77.16;94633.41;5021299;28;20235;-71
2021/07/17 03:54:26;;;;;;;13.13;11.83;;;16.50;99.90;;;17.15;77.18;94633.94;5020738;28;20792;-71
2021/07/17 03:56:52;;;;;;;13.73;12.53;;;16.10;99.90;;;17.01;77.23;94629.56;5013600;28;20685;-70
2021/07/17 03:59:20;;;;;;;14.43;13.03;;;16.00;99.90;;;16.92;77.16;94642.78;5005917;28;20225;-70
2021/07/17 04:01:47;;;;;;;15.03;13.53;;;15.80;99.90;;;17.00;77.22;94636.78;5031545;28;20505;-69
2021/07/17 04:04:15;;;;;;;14.77;13.37;;;15.80;99.90;;;17.05;77.23;94630.59;5026714;28;20204;-70
2021/07/17 04:06:43;;;;;;;14.30;12.90;;;15.80;99.90;;;17.09;77.38;94631.63;5013016;28;20220;-69
2021/07/17 04:09:09;;;;;;;14.03;12.63;;;15.90;99.90;;;17.13;77.56;94633.41;5026450;28;20202;-69
2021/07/17 04:11:34;;;;;;;13.70;12.47;;;16.00;99.90;;;17.19;77.36;94628.81;5041357;28;20204;-70
2021/07/17 04:14:01;;;;;;;15.97;12.40;;;16.00;99.90;;;17.22;77.33;94629.03;5040597;28;20217;-70
2021/07/17 04:16:26;;;;;;;13.63;11.93;;;16.00;99.90;;;17.26;77.52;94637.28;5019806;28;20194;-70
2021/07/17 04:18:54;;;;;;;13.47;12.30;;;16.10;99.90;;;17.25;77.36;94633.81;5022024;28;20765;-68
2021/07/17 04:21:23;;;;;;;13.10;12.00;;;16.10;99.90;;;17.26;77.56;94640.75;5024628;28;20196;-70
2021/07/17 04:23:49;;;;;;;14.23;12.53;;;16.20;99.90;;;17.28;77.67;94627.88;5028411;28;20208;-70
2021/07/17 04:26:15;;;;;;;12.93;11.60;;;16.20;99.90;;;17.31;77.47;94631.84;5041772;28;20183;-68
2021/07/17 04:28:42;;;;;;;10.83;9.93;;;16.20;99.90;;;17.40;77.84;94633.59;5014355;28;20293;-69
2021/07/17 04:31:08;;;;;;;10.00;9.20;;;16.20;99.90;;;17.44;77.66;94633.81;5028550;28;20196;-69
2021/07/17 04:33:34;;;;;;;10.83;9.93;;;16.30;99.90;;;17.38;77.72;94635.78;5026307;28;20245;-70
2021/07/17 04:36:00;;;;;;;10.10;9.20;;;16.20;99.90;;;17.36;77.37;94640.63;5022953;28;20889;-70
2021/07/17 04:38:26;;;;;;;10.60;9.60;;;16.20;99.90;;;17.36;77.78;94637.94;5012535;28;20212;-69
2021/07/17 04:40:52;;;;;;;11.53;10.47;;;16.20;99.90;;;17.40;77.64;94652.38;5028754;28;20210;-69
2021/07/17 04:43:18;;;;;;;10.03;9.10;;;16.20;99.90;;;17.44;77.57;94648.03;5025115;28;20220;-69
2021/07/17 04:45:44;;;;;;;10.93;10.03;;;16.20;99.90;;;17.48;77.44;94650.13;5025272;28;20201;-69
2021/07/17 04:48:10;;;;;;;9.43;8.60;;;16.30;99.90;;;17.47;77.77;94637.81;5018837;28;20216;-69
2021/07/17 04:50:39;;;;;;;10.10;9.30;;;16.30;99.90;;;17.41;78.33;94651.28;5026072;28;20201;-69
2021/07/17 04:53:08;;;;;;;10.67;9.77;;;16.30;99.90;;;17.37;77.86;94655.63;4978014;28;20210;-70
2021/07/17 04:55:35;;;;;;;10.20;9.30;;;16.20;99.90;;;17.41;77.96;94648.59;5007336;28;20314;-70
2021/07/17 04:58:01;;;;;;;9.83;8.83;;;16.30;99.90;;;17.41;77.79;94640.56;4987727;28;20222;-69
2021/07/17 05:00:27;;;;;;;9.07;8.37;;;16.30;99.90;;;17.42;77.72;94638.69;5020900;28;20210;-70
2021/07/17 05:02:55;;;;;;;9.47;8.60;;;16.30;99.90;;;17.47;77.93;94652.00;4988652;28;20223;-70
2021/07/17 05:05:23;;;;;;;10.20;9.30;;;16.30;99.90;;;17.44;77.91;94649.91;5005628;28;20204;-70
2021/07/17 05:07:51;;;;;;;10.23;9.37;;;16.30;99.90;;;17.48;78.06;94639.41;4984831;28;20536;-70
2021/07/17 05:10:20;;;;;;;9.17;8.37;;;16.40;99.90;;;17.56;77.97;94649.53;5022106;28;20207;-69
2021/07/17 05:12:48;;;;;;;9.97;9.17;;;16.40;99.90;;;17.62;77.73;94645.69;5006209;28;20232;-70
2021/07/17 05:15:15;;;;;;;9.47;8.60;;;16.50;99.90;;;17.65;77.92;94642.41;5020736;28;20297;-70
2021/07/17 05:17:42;;;;;;;9.87;9.07;;;16.60;99.90;;;17.71;78.20;94646.63;5022336;28;20217;-70
2021/07/17 05:20:09;;;;;;;9.67;8.87;;;16.60;99.90;;;17.74;77.85;94662.13;4996785;28;20222;-70
2021/07/17 05:22:35;;;;;;;10.00;9.20;;;16.60;99.90;;;17.76;78.12;94651.91;4966728;28;20214;-70
2021/07/17 05:25:04;;;;;;;9.93;9.13;;;16.70;99.90;;;17.77;78.15;94658.84;5031351;28;20233;-69
2021/07/17 05:27:30;;;;;;;9.63;8.70;;;16.70;99.90;;;17.79;78.20;94640.63;5023706;28;20189;-70
2021/07/17 05:29:56;;;;;;;9.90;9.10;;;16.80;99.90;;;17.83;78.21;94652.31;5026269;28;20267;-69
2021/07/17 05:32:24;;;;;;;10.80;9.90;;;16.80;99.90;;;17.83;78.16;94645.09;5027053;28;20226;-70
2021/07/17 05:34:54;;;;;;;10.80;9.90;;;16.60;99.90;;;17.84;78.17;94656.63;5012988;28;20297;-70
2021/07/17 05:37:22;;;;;;;10.83;9.93;;;16.60;99.90;;;17.85;78.20;94648.28;5026003;28;20243;-70
2021/07/17 05:39:51;;;;;;;10.80;9.70;;;17.20;99.90;;;17.77;78.38;94640.09;5019877;28;20843;-71
2021/07/17 05:42:20;;;;;;;10.60;9.70;;;16.80;99.90;;;17.69;78.37;94646.13;5024444;28;20230;-70
2021/07/17 05:44:47;;;;;;;10.87;9.80;;;16.70;99.90;;;17.78;78.32;94655.09;5003187;28;20201;-69
2021/07/17 05:47:13;;;;;;;10.83;9.83;;;16.70;99.90;;;17.71;78.25;94657.34;5041944;28;20852;-70
2021/07/17 05:49:39;;;;;;;10.30;9.40;;;16.60;99.90;;;17.75;78.17;94661.03;5006245;28;20208;-69
2021/07/17 05:52:06;;;;;;;10.73;9.73;;;16.60;99.90;;;17.74;78.42;94662.94;5025049;28;20198;-71
2021/07/17 05:54:32;;;;;;;10.63;9.73;;;16.70;99.90;;;17.87;78.00;94672.13;4999786;28;20208;-71
2021/07/17 05:56:58;;;;;;;10.80;9.80;;;16.80;99.90;;;17.83;78.11;94657.69;5023922;28;20202;-71
2021/07/17 05:59:27;;;;;;;11.33;10.33;;;16.80;99.90;;;17.92;78.44;94666.69;4995465;28;20215;-71
2021/07/17 06:01:58;;;;;;;11.97;10.83;;;16.80;99.90;;;18.04;78.41;94669.72;5008055;28;20206;-71
2021/07/17 06:04:24;;;;;;;12.00;10.80;;;16.90;99.90;;;18.11;78.39;94672.03;4998270;28;20560;-72
2021/07/17 06:06:54;;;;;;;11.90;10.90;;;17.00;99.90;;;18.13;78.40;94672.56;5021859;28;20236;-71
2021/07/17 06:09:20;;;;;;;12.80;11.67;;;17.10;99.90;;;18.17;78.27;94678.91;5041552;28;20319;-71
2021/07/17 06:11:49;;;;;;;13.63;12.33;;;17.10;99.90;;;18.26;78.29;94677.97;5021256;28;20206;-71
2021/07/17 06:14:15;;;;;;;13.73;12.33;;;17.20;99.90;;;18.35;78.45;94678.91;5052112;28;20195;-71
2021/07/17 06:16:44;;;;;;;14.43;13.13;;;17.30;99.90;;;18.44;78.69;94673.63;5018394;28;20191;-70
2021/07/17 06:19:12;;;;;;;15.80;14.30;;;17.30;99.90;;;18.52;78.66;94675.69;5026621;28;20218;-71
2021/07/17 06:21:39;;;;;;;15.97;14.57;;;17.40;99.90;;;18.57;78.58;94674.81;5024906;28;20535;-71
2021/07/17 06:24:05;;;;;;;17.23;15.73;;;17.50;99.90;;;18.68;78.60;94665.47;5018272;28;20215;-70
2021/07/17 06:26:31;;;;;;;16.83;15.33;;;17.60;99.90;;;18.75;78.61;94664.00;5023323;28;21063;-68
2021/07/17 06:29:00;;;;;;;16.00;14.50;;;17.70;99.90;;;18.82;78.43;94677.03;5022623;28;20203;-72
2021/07/17 06:31:26;;;;;;;16.40;14.90;;;17.70;99.90;;;18.68;78.49;94671.66;5008541;28;20218;-72
2021/07/17 06:33:52;;;;;;;16.13;14.63;;;17.70;99.90;;;18.67;78.58;94682.69;5017192;28;20195;-72
2021/07/17 06:36:21;;;;;;;16.83;15.33;;;17.70;99.90;;;18.57;78.48;94672.13;4982308;28;20216;-70
2021/07/17 06:38:47;;;;;;;17.07;15.43;;;17.60;99.90;;;18.54;78.60;94683.44;5024810;28;20215;-72
2021/07/17 06:41:13;;;;;;;16.20;14.60;;;17.60;99.90;;;18.49;78.30;94684.31;5021863;28;20198;-70
2021/07/17 06:43:39;;;;;;;16.57;15.10;;;17.50;99.90;;;18.39;78.62;94679.09;5020808;28;20198;-70
2021/07/17 06:46:07;;;;;;;16.60;15.07;;;17.40;99.90;;;18.60;78.61;94693.03;5023022;28;20229;-71
2021/07/17 06:48:33;;;;;;;16.10;14.60;;;17.60;99.90;;;18.80;78.52;94698.03;5021573;28;20285;-71
2021/07/17 06:50:59;;;;;;;17.27;15.77;;;17.70;99.90;;;18.71;78.36;94689.06;5022402;28;20344;-71
2021/07/17 06:53:25;;;;;;;16.83;15.37;;;17.70;99.90;;;18.80;78.33;94692.66;5022692;28;20205;-70
2021/07/17 06:55:51;;;;;;;17.47;15.90;;;17.80;99.90;;;18.79;78.61;94696.44;5015639;28;20310;-71
2021/07/17 06:58:17;;;;;;;16.87;15.40;;;17.80;99.90;;;18.78;78.42;94692.94;5008731;28;20303;-71
2021/07/17 07:00:43;;;;;;;17.93;16.40;;;17.80;99.90;;;18.75;78.53;94687.38;5024087;28;20211;-70
2021/07/17 07:03:09;;;;;;;17.37;15.53;;;17.70;99.90;;;18.86;78.63;94700.34;5024817;28;20221;-72
2021/07/17 07:05:37;;;;;;;17.27;15.67;;;17.80;99.90;;;18.90;78.50;94705.91;5017301;28;20615;-70
2021/07/17 07:08:06;;;;;;;17.97;16.03;;;17.80;99.90;;;18.84;78.63;94701.72;5049854;28;20197;-70
2021/07/17 07:10:32;;;;;;;15.43;13.83;;;17.80;99.90;;;18.93;78.50;94713.38;5024599;28;20205;-72
2021/07/17 07:13:00;;;;;;;15.43;14.03;;;17.80;99.90;;;18.91;78.44;94718.25;5032859;28;20201;-71
2021/07/17 07:15:26;;;;;;;15.17;13.83;;;17.90;99.90;;;18.94;78.55;94707.69;5023945;28;20532;-72
2021/07/17 07:17:52;;;;;;;15.00;13.57;;;18.10;99.90;;;18.91;78.59;94708.28;5007820;28;20206;-69
2021/07/17 07:20:18;;;;;;;14.93;13.30;;;18.20;99.90;;;19.00;78.57;94715.69;5022276;28;20242;-71
2021/07/17 07:22:44;;;;;;;14.53;13.00;;;18.00;99.90;;;19.04;78.50;94712.09;5023091;28;20208;-71
2021/07/17 07:25:13;;;;;;;14.50;13.00;;;18.10;99.90;;;19.10;78.54;94713.59;5018130;28;20188;-71
2021/07/17 07:27:39;;;;;;;14.53;13.20;;;18.00;99.90;;;19.26;78.60;94719.47;5019333;28;20230;-71
2021/07/17 07:30:06;;;;;;;15.20;13.17;;;18.30;99.90;;;19.49;78.55;94717.72;5022580;28;20199;-69
2021/07/17 07:32:32;;;;;;;13.73;12.43;;;18.30;99.90;;;19.51;78.49;94710.94;5021114;28;21027;-72
2021/07/17 07:34:58;;;;;;;13.63;12.43;;;18.40;99.90;;;19.66;78.38;94705.25;5021127;28;20246;-71
2021/07/17 07:37:25;;;;;;;14.70;13.23;;;18.60;99.90;;;20.04;78.51;94723.81;5007496;28;20666;-72
2021/07/17 07:39:54;;;;;;;13.67;12.27;;;18.90;99.90;;;20.19;78.38;94705.41;5025263;28;20282;-72
2021/07/17 07:42:20;;;;;;;12.80;11.53;;;19.10;99.90;;;20.25;78.26;94706.88;5021951;28;20208;-71
2021/07/17 07:44:46;;;;;;;13.43;12.20;;;19.20;99.90;;;20.29;78.18;94709.81;5006021;28;21011;-74
2021/07/17 07:47:12;;;;;;;13.03;11.83;;;19.20;99.90;;;20.33;78.12;94700.81;5021048;28;20200;-71
2021/07/17 07:49:42;;;;;;;13.47;12.00;;;19.30;99.90;;;20.22;78.37;94698.63;5008718;28;21047;-71
2021/07/17 07:52:10;;;;;;;13.70;12.10;;;19.30;99.90;;;20.06;78.13;94702.78;5024497;28;20571;-72
2021/07/17 07:54:37;;;;;;;12.80;11.60;;;19.20;99.90;;;20.02;77.99;94712.53;5025238;28;20686;-73
2021/07/17 07:57:04;;;;;;;13.43;12.07;;;19.10;99.90;;;20.05;78.09;94720.81;5022597;28;20199;-73
2021/07/17 07:59:30;;;;;;;12.97;11.87;;;19.10;99.90;;;20.04;78.05;94705.78;5010923;28;20263;-72
2021/07/17 08:01:55;;;;;;;14.07;12.70;;;19.10;99.90;;;19.88;78.02;94712.56;5022791;28;20570;-74
2021/07/17 08:04:21;;;;;;;13.40;12.10;;;19.00;99.90;;;19.85;78.04;94715.88;5026133;28;20349;-73
2021/07/17 08:06:47;;;;;;;14.47;13.00;;;19.00;99.90;;;19.84;77.90;94723.16;5024977;28;20663;-73
2021/07/17 08:09:13;;;;;;;14.30;12.80;;;18.90;99.90;;;19.96;78.16;94728.81;5009860;28;20223;-71
2021/07/17 08:11:41;;;;;;;13.97;12.57;;;19.00;99.90;;;19.93;77.89;94720.56;5053360;28;20206;-73
2021/07/17 08:14:11;;;;;;;14.23;12.90;;;19.00;99.90;;;20.16;78.02;94745.63;5008636;28;20727;-72
2021/07/17 08:16:37;;;;;;;14.07;12.60;;;19.10;99.90;;;20.45;78.07;94729.88;5025733;28;20223;-70
2021/07/17 08:19:03;;;;;;;13.53;12.13;;;19.40;99.90;;;20.41;78.07;94735.09;5009101;28;20653;-72
2021/07/17 08:21:29;;;;;;;12.97;11.73;;;19.40;99.90;;;20.44;77.89;94734.50;5041635;28;20215;-71
2021/07/17 08:23:55;;;;;;;15.07;13.40;;;19.40;99.90;;;20.64;77.77;94718.94;5020183;28;20280;-72
2021/07/17 08:26:22;;;;;;;13.77;12.47;;;19.60;99.90;;;20.67;78.01;94719.13;5031861;28;20283;-75
2021/07/17 08:28:48;;;;;;;14.03;12.53;;;19.70;99.90;;;20.69;77.68;94714.22;5020932;28;20704;-72
2021/07/17 08:31:14;;;;;;;14.07;12.67;;;19.70;99.90;;;20.65;77.79;94701.69;5020802;28;20283;-71
2021/07/17 08:33:40;;;;;;;14.63;13.13;;;19.70;99.90;;;20.70;77.62;94729.28;5025412;28;20210;-72
2021/07/17 08:36:06;;;;;;;14.73;13.33;;;19.70;99.90;;;20.74;77.78;94743.75;5027444;28;20208;-71
2021/07/17 08:38:32;;;;;;;15.40;13.63;;;19.70;99.90;;;20.94;77.61;94732.44;5025943;28;20212;-72
2021/07/17 08:41:00;;;;;;;14.10;12.63;;;19.90;99.90;;;20.80;77.71;94742.50;5021790;28;20280;-74
2021/07/17 08:43:26;;;;;;;15.87;14.10;;;19.80;99.90;;;20.48;77.50;94709.66;5013056;28;20644;-72
2021/07/17 08:45:52;;;;;;;15.30;13.70;;;19.60;99.90;;;20.03;77.46;94720.31;5024784;28;20220;-74
2021/07/17 08:48:20;;;;;;;15.57;13.97;;;19.20;99.90;;;20.18;77.52;94749.59;5022012;28;20205;-72
2021/07/17 08:50:48;;;;;;;16.10;14.00;;;19.20;99.90;;;20.39;77.47;94747.25;5023831;28;20196;-76
2021/07/17 08:53:17;;;;;;;16.73;15.13;;;19.40;99.90;;;20.44;77.25;94715.66;5021829;28;20660;-71
2021/07/17 08:55:43;;;;;;;16.07;14.57;;;19.40;99.90;;;20.66;77.55;94741.78;5025645;28;20208;-70
2021/07/17 08:58:14;;;;;;;16.73;15.03;;;19.60;99.90;;;20.57;77.37;94726.66;5054979;28;20783;-72
2021/07/17 09:00:43;;;;;;;16.60;15.03;;;19.60;99.90;;;20.42;77.41;94736.69;5035083;28;20207;-73
2021/07/17 09:03:18;;;;;;;17.13;14.40;;;19.40;99.90;;;20.53;77.31;94739.13;5024455;28;20288;-73
2021/07/17 09:05:49;;;;;;;15.27;13.87;;;19.70;99.90;;;20.46;77.37;94721.50;5009303;28;20985;-73
2021/07/17 09:08:18;;;;;;;16.27;14.67;;;19.30;99.90;;;20.19;77.31;94716.19;5019322;28;20204;-73
2021/07/17 09:10:49;;;;;;;16.17;14.60;;;19.60;99.90;;;20.24;77.46;94732.25;5051880;28;20232;-72
2021/07/17 09:13:31;;;;;;;15.03;13.63;;;19.10;99.90;;;20.27;77.39;94745.13;5018656;28;20563;-72
2021/07/17 09:16:07;;;;;;;16.23;14.73;;;19.40;99.90;;;20.14;77.28;94729.78;5054096;28;20199;-72
2021/07/17 09:19:07;;;;;;;16.17;14.67;;;19.20;99.90;;;19.81;77.45;94725.66;5022582;28;20223;-71
2021/07/17 09:21:37;;;;;;;19.13;15.20;;;19.00;99.90;;;19.77;77.27;94730.84;5021066;28;20912;-72
2021/07/17 09:24:12;;;;;;;17.80;14.87;;;18.80;99.90;;;19.99;77.49;94743.56;5017999;28;20643;-72
2021/07/17 09:26:51;;;;;;;19.03;15.20;;;18.90;99.90;;;20.19;77.31;94736.94;5025674;28;20202;-72
2021/07/17 09:29:18;;;;;;;18.47;15.37;;;19.00;99.90;;;20.32;77.31;94719.97;5018481;28;20262;-72
2021/07/17 09:31:50;;;;;;;16.13;14.43;;;19.20;99.90;;;20.26;77.32;94721.94;5025882;28;20219;-72
2021/07/17 09:34:23;;;;;;;16.83;14.90;;;19.10;99.90;;;19.96;77.34;94717.25;5021916;28;20211;-73
2021/07/17 09:36:52;;;;;;;16.83;14.90;;;18.90;99.90;;;20.02;77.40;94728.69;5053017;28;20229;-72
2021/07/17 09:39:21;;;;;;;16.47;14.77;;;19.00;99.90;;;20.01;77.19;94729.81;5022922;28;20225;-72
2021/07/17 09:42:06;;;;;;;17.80;15.97;;;18.90;99.90;;;19.82;77.22;94729.94;5022681;28;20203;-73
2021/07/17 09:44:33;;;;;;;16.93;15.20;;;18.80;99.90;;;19.75;77.43;94729.53;5017352;28;20199;-72
2021/07/17 09:47:03;;;;;;;16.93;15.33;;;18.70;99.90;;;19.86;77.18;94733.63;5023739;28;20282;-72
2021/07/17 09:49:29;;;;;;;17.10;15.40;;;18.70;99.90;;;19.89;77.35;94731.13;5026862;28;20191;-72
2021/07/17 09:52:11;;;;;;;17.23;15.53;;;18.80;99.90;;;19.83;77.32;94729.66;5023745;28;20234;-71
2021/07/17 09:55:18;;;;;;;17.03;15.33;;;18.80;99.90;;;19.98;77.30;94733.88;5006116;28;20208;-72
2021/07/17 09:57:45;;;;;;;17.57;15.50;;;18.90;99.90;;;19.70;77.27;94702.75;5051170;28;20242;-71
2021/07/17 10:00:18;;;;;;;16.93;15.33;;;18.80;99.90;;;19.55;77.33;94720.00;5016768;28;20215;-72
2021/07/17 10:02:44;;;;;;;17.33;15.53;;;18.60;99.90;;;19.35;77.14;94698.88;5022733;28;20187;-72
2021/07/17 10:05:16;;;;;;;18.43;16.50;;;18.40;99.90;;;19.15;77.31;94715.38;5048447;28;20192;-71
2021/07/17 10:07:44;;;;;;;18.87;17.03;;;18.10;99.90;;;19.18;77.49;94707.53;5040257;28;20222;-72
2021/07/17 10:10:11;;;;;;;19.40;16.63;;;18.20;99.90;;;19.12;77.30;94706.03;5022564;28;20244;-70
2021/07/17 10:12:46;;;;;;;18.97;17.03;;;18.10;99.90;;;19.02;77.50;94719.66;5038394;28;20226;-71
2021/07/17 10:15:17;;;;;;;19.97;17.87;;;18.00;99.90;;;19.20;77.63;94708.03;5018071;28;20195;-71